Time;durP1;ratioP1;P1;durP2;ratioP2;P2;SDS_P1;SDS_P2;PMS_P1;PMS_P2;Temp;Humidity;BMP_temperature;BMP_pressure;BME280_temperature;BME280_humidity;BME280_pressure;Samples;Min_cycle;Max_cycle;Signal;HPM_P1;HPM_P2
2022/05/08 00:00:09;;;;;;;;;;;;;;;;;;;;;
2022/05/08 00:58:52;;;;;;;;;;;;;;;;;;;;;
2022/05/08 01:01:18;;;;;;;1.00;0.80;;;;;;;12.96;66.46;101518.53;6276807;22;20066;-74
2022/05/08 01:04:45;;;;;;;;;;;;;;;;;;;;;
2022/05/08 01:09:10;;;;;;;0.60;0.60;;;;;;;12.67;66.75;101489.34;6277153;22;20046;-76
2022/05/08 01:29:44;;;;;;;;;;;;;;;;;;;;;
2022/05/08 01:36:40;;;;;;;2.15;1.60;;;;;;;12.58;67.76;101521.06;5878847;24;20022;-76
2022/05/08 01:39:06;;;;;;;1.75;1.38;;;;;;;12.55;68.14;101513.34;5912258;23;20014;-74
2022/05/08 01:42:11;;;;;;;;;;;;;;;;;;;;;
2022/05/08 01:45:24;;;;;;;2.15;1.42;;;;;;;12.59;68.42;101522.72;5845590;24;20493;-76
2022/05/08 01:49:17;;;;;;;;;;;;;;;;;;;;;
2022/05/08 01:55:02;;;;;;;3.35;2.00;;;;;;;12.32;68.99;101496.00;5867530;24;20089;-77
2022/05/08 02:01:33;;;;;;;3.80;2.50;;;;;;;12.12;69.64;101495.69;5906486;24;20090;-75
2022/05/08 02:04:06;;;;;;;4.22;2.63;;;;;;;12.08;70.26;101519.22;5894764;24;20457;-75
2022/05/08 02:13:36;;;;;;;3.58;2.47;;;;;;;11.42;71.09;101503.22;5994184;23;20075;-76
2022/05/08 02:16:18;;;;;;;;;;;;;;;;;;;;;
2022/05/08 02:19:26;;;;;;;;;;;;;;;;;;;;;
2022/05/08 02:22:37;;;;;;;3.83;3.00;;;;;;;11.16;72.63;101500.00;6100863;23;20391;-75
2022/05/08 02:35:20;;;;;;;6.97;4.50;;;;;;;11.08;73.65;101541.44;6127375;23;20461;-75
2022/05/08 02:45:09;;;;;;;6.78;4.75;;;;;;;10.96;73.58;101545.03;6089598;23;20017;-75
2022/05/08 02:47:56;;;;;;;;;;;;;;;;;;;;;
2022/05/08 02:53:24;;;;;;;;;;;;;;;;;;;;;
2022/05/08 02:59:40;;;;;;;5.53;3.10;;;;;;;10.34;74.86;101520.97;6202361;23;20030;-73
2022/05/08 03:02:21;;;;;;;;;;;;;;;;;;;;;
2022/05/08 03:04:58;;;;;;;4.60;3.08;;;;;;;10.17;75.29;101518.06;6226259;23;20055;-74
2022/05/08 03:07:37;;;;;;;3.22;2.58;;;;;;;10.21;75.05;101532.94;6222205;23;20008;-74
2022/05/08 03:10:14;;;;;;;;;;;;;;;;;;;;;
2022/05/08 03:12:39;;;;;;;3.67;3.17;;;;;;;10.00;75.70;101525.28;6252446;23;20024;-73
2022/05/08 03:15:13;;;;;;;4.15;3.05;;;;;;;9.91;76.36;101519.34;6197092;23;20015;-74
2022/05/08 03:17:42;;;;;;;6.20;3.10;;;;;;;10.05;75.78;101539.09;6223401;23;20012;-75
2022/05/08 03:23:25;;;;;;;3.33;2.47;;;;;;;9.88;76.32;101523.38;6214941;23;20007;-73
2022/05/08 03:29:58;;;;;;;4.32;2.38;;;;;;;9.85;75.93;101521.09;6200128;23;20008;-78
2022/05/08 03:33:02;;;;;;;;;;;;;;;;;;;;;
2022/05/08 03:35:40;;;;;;;2.95;2.47;;;;;;;9.79;76.17;101531.06;6231524;23;20047;-77
2022/05/08 03:41:15;;;;;;;2.42;2.20;;;;;;;9.81;76.55;101539.03;6187885;23;19923;-75
2022/05/08 03:43:57;;;;;;;;;;;;;;;;;;;;;
2022/05/08 03:46:48;;;;;;;;;;;;;;;;;;;;;
2022/05/08 03:50:09;;;;;;;;;;;;;;;;;;;;;
2022/05/08 03:52:39;;;;;;;5.45;3.95;;;;;;;9.62;76.62;101541.00;6251452;23;20043;-75
2022/05/08 03:55:18;;;;;;;6.70;3.90;;;;;;;9.66;77.07;101544.09;6251807;23;20581;-75
2022/05/08 04:01:19;;;;;;;6.20;4.32;;;;;;;9.58;77.60;101551.56;6237023;22;20406;-75
2022/05/08 04:03:50;;;;;;;4.45;3.15;;;;;;;9.39;77.54;101528.13;6252366;22;19999;-75
2022/05/08 04:07:00;;;;;;;4.75;3.03;;;;;;;9.49;77.91;101536.59;6230758;22;20012;-75
2022/05/08 04:12:42;;;;;;;3.78;2.67;;;;;;;9.36;77.08;101531.28;6012287;23;20510;-74
2022/05/08 04:53:24;;;;;;;;;;;;;;;;;;;;;
2022/05/08 06:06:01;;;;;;;9.20;4.88;;;;;;;10.92;75.65;101625.97;6290551;22;20074;-79
2022/05/08 06:08:30;;;;;;;6.72;5.20;;;;;;;10.97;75.61;101617.88;6279626;22;20008;-78
2022/05/08 06:47:41;;;;;;;6.70;4.57;;;;;;;12.53;70.98;101644.47;6253359;22;20023;-78
2022/05/08 06:50:35;;;;;;;7.18;5.03;;;;;;;12.57;70.59;101645.59;6229535;23;20046;-76
2022/05/08 06:53:43;;;;;;;;;;;;;;;;;;;;;
2022/05/08 06:57:07;;;;;;;;;;;;;;;;;;;;;
2022/05/08 08:12:16;;;;;;;3.70;2.45;;;;;;;16.80;56.04;101631.16;6254569;23;20466;-75
2022/05/08 08:15:48;;;;;;;;;;;;;;;;;;;;;
2022/05/08 08:18:11;;;;;;;7.80;3.58;;;;;;;16.92;55.91;101648.31;6106724;23;20369;-81
2022/05/08 08:40:39;;;;;;;4.35;2.75;;;;;;;17.52;53.96;101644.81;6106835;23;20005;-79
2022/05/08 08:43:09;;;;;;;3.92;2.58;;;;;;;17.77;53.14;101662.38;6107817;23;20006;-79
2022/05/08 08:59:56;;;;;;;;;;;;;;;;;;;;;
2022/05/08 09:03:28;;;;;;;;;;;;;;;;;;;;;
2022/05/08 09:07:06;;;;;;;;;;;;;;;;;;;;;
2022/05/08 09:24:43;;;;;;;;;;;;;;;;;;;;;
2022/05/08 10:41:01;;;;;;;;;;;;;;;;;;;;;
2022/05/08 10:44:46;;;;;;;1.85;1.08;;;;;;;26.86;33.21;101623.19;6282703;22;20042;-78
2022/05/08 10:48:09;;;;;;;;;;;;;;;;;;;;;
2022/05/08 11:05:13;;;;;;;;;;;;;;;;;;;;;
2022/05/08 17:23:04;;;;;;;;;;;;;;;;;;;;;
2022/05/08 17:25:33;;;;;;;4.40;1.95;;;;;;;23.47;31.45;101307.81;6220993;23;20039;-74
2022/05/08 17:31:07;;;;;;;4.40;1.83;;;;;;;21.74;35.65;101322.03;6221667;23;20039;-75
2022/05/08 17:33:32;;;;;;;6.07;1.58;;;;;;;21.28;37.01;101342.69;6193514;23;20024;-75
2022/05/08 17:36:14;;;;;;;;;;;;;;;;;;;;;
2022/05/08 17:38:39;;;;;;;4.93;1.35;;;;;;;20.48;38.34;101337.53;6218501;23;20020;-73
2022/05/08 17:41:10;;;;;;;6.57;1.85;;;;;;;20.13;39.71;101336.34;6167597;23;20012;-75
2022/05/08 17:43:43;;;;;;;8.25;2.22;;;;;;;19.95;40.37;101347.25;6192797;23;19997;-74
2022/05/08 17:46:17;;;;;;;7.30;1.83;;;;;;;19.62;41.56;101350.03;6218018;23;20028;-74
2022/05/08 17:48:47;;;;;;;8.65;1.75;;;;;;;19.10;41.69;101310.44;6193650;23;20419;-73
2022/05/08 17:51:30;;;;;;;7.78;1.83;;;;;;;20.39;41.29;101351.34;6193722;23;20007;-75
2022/05/08 17:54:13;;;;;;;;;;;;;;;;;;;;;
2022/05/08 17:56:53;;;;;;;12.65;2.78;;;;;;;22.22;37.56;101319.59;6198997;23;20043;-75
2022/05/08 17:59:28;;;;;;;;;;;;;;;;;;;;;
2022/05/08 18:08:10;;;;;;;7.82;2.03;;;;;;;22.51;36.67;101338.53;6222849;23;20078;-77
2022/05/08 18:14:24;;;;;;;10.77;2.58;;;;;;;22.58;36.71;101355.59;6194439;23;20131;-77
2022/05/08 18:21:05;;;;;;;;;;;;;;;;;;;;;
2022/05/08 18:24:28;;;;;;;;;;;;;;;;;;;;;
2022/05/08 18:27:07;;;;;;;;;;;;;;;;;;;;;
2022/05/08 18:37:21;;;;;;;;;;;;;;;;;;;;;
2022/05/08 18:40:01;;;;;;;;;;;;;;;;;;;;;
2022/05/08 18:42:49;;;;;;;9.25;2.00;;;;;;;18.95;42.45;101359.47;5985352;23;20038;-76
2022/05/08 18:45:35;;;;;;;7.03;1.98;;;;;;;18.50;43.29;101364.50;6184150;23;20424;-79
2022/05/08 18:48:17;;;;;;;9.98;2.13;;;;;;;18.05;45.57;101367.50;6195057;23;20004;-75
2022/05/08 18:50:48;;;;;;;7.63;1.85;;;;;;;17.45;47.02;101329.91;6196919;23;20005;-74
2022/05/08 18:53:20;;;;;;;6.55;2.13;;;;;;;17.26;47.61;101360.19;6199083;23;20011;-75
2022/05/08 18:56:20;;;;;;;4.72;1.98;;;;;;;16.83;48.22;101348.84;6198983;23;20000;-78
2022/05/08 18:59:08;;;;;;;8.27;2.00;;;;;;;16.62;50.56;101367.47;6180211;23;20048;-75
2022/05/08 19:01:38;;;;;;;12.20;2.45;;;;;;;16.14;50.43;101328.50;6196874;23;20012;-75
2022/05/08 19:04:41;;;;;;;11.73;2.83;;;;;;;16.14;50.88;101362.41;6196720;23;20009;-77
2022/05/08 19:13:43;;;;;;;9.10;2.22;;;;;;;15.33;53.35;101342.94;6203672;23;20075;-75
2022/05/08 19:16:18;;;;;;;;;;;;;;;;;;;;;
2022/05/08 19:18:48;;;;;;;13.35;2.30;;;;;;;15.21;53.95;101380.13;6222986;23;20036;-75
2022/05/08 19:21:15;;;;;;;12.07;2.90;;;;;;;15.05;56.04;101373.78;6146589;22;20028;-74
2022/05/08 19:23:42;;;;;;;7.53;2.75;;;;;;;14.94;56.59;101389.47;6169342;23;20008;-74
2022/05/08 19:26:10;;;;;;;8.82;2.17;;;;;;;14.65;56.12;101359.66;6220096;23;20009;-74
2022/05/08 19:29:14;;;;;;;;;;;;;;;;;;;;;
2022/05/08 19:40:13;;;;;;;14.32;2.63;;;;;;;14.14;60.55;101391.31;6194384;23;20067;-73
2022/05/08 19:42:42;;;;;;;10.48;2.72;;;;;;;13.95;60.33;101393.66;6170184;23;20015;-78
2022/05/08 19:45:26;;;;;;;;;;;;;;;;;;;;;
2022/05/08 19:48:12;;;;;;;11.98;2.90;;;;;;;13.83;62.25;101408.69;6222949;23;20028;-77
2022/05/08 19:54:15;;;;;;;5.88;2.10;;;;;;;13.26;61.32;101383.50;6147897;23;20019;-78
2022/05/08 19:56:41;;;;;;;14.70;3.03;;;;;;;13.34;63.70;101410.50;6195282;23;20017;-76
2022/05/08 19:59:18;;;;;;;14.35;2.88;;;;;;;13.25;64.54;101403.81;6167289;23;20376;-75
2022/05/08 20:01:45;;;;;;;10.48;2.50;;;;;;;13.10;64.61;101401.75;6193430;23;20012;-75
2022/05/08 20:04:14;;;;;;;9.13;2.83;;;;;;;12.99;65.20;101403.53;6193941;23;20087;-75
2022/05/08 20:06:50;;;;;;;13.23;2.85;;;;;;;13.02;65.81;101422.22;6193491;23;20012;-74
2022/05/08 20:09:18;;;;;;;11.52;3.88;;;;;;;12.86;66.33;101417.66;6169114;23;20004;-75
2022/05/08 20:12:16;;;;;;;10.35;3.25;;;;;;;12.69;65.64;101409.53;6219268;23;20005;-75
2022/05/08 21:47:56;;;;;;;10.15;3.53;;;;;;;10.62;70.62;101427.22;6212137;22;20016;-75
2022/05/08 21:50:52;;;;;;;;;;;;;;;;;;;;;
2022/05/08 21:53:25;;;;;;;10.23;3.38;;;;;;;10.59;71.07;101426.91;6247320;23;20091;-73
2022/05/08 21:55:54;;;;;;;6.45;2.60;;;;;;;10.69;70.80;101448.13;6251050;23;20003;-75
2022/05/08 21:58:42;;;;;;;7.07;2.08;;;;;;;10.92;70.56;101460.94;6222135;23;20095;-74
2022/05/08 22:01:09;;;;;;;7.85;2.88;;;;;;;11.07;69.65;101452.19;6251739;23;20000;-75
2022/05/08 22:03:42;;;;;;;4.75;2.00;;;;;;;11.29;69.18;101464.13;6250956;23;20004;-78
2022/05/08 22:06:14;;;;;;;5.25;2.03;;;;;;;11.21;68.79;101430.81;6231897;22;20057;-75
2022/05/08 22:16:23;;;;;;;4.35;2.38;;;;;;;11.32;68.89;101449.94;6188790;23;20036;-74
2022/05/08 22:22:22;;;;;;;6.20;2.13;;;;;;;11.13;69.14;101434.81;6082945;23;20475;-77
2022/05/08 22:25:03;;;;;;;;;;;;;;;;;;;;;
2022/05/08 22:27:33;;;;;;;7.65;2.40;;;;;;;11.26;68.58;101456.41;6104963;23;20540;-72
2022/05/08 22:30:57;;;;;;;6.53;2.50;;;;;;;11.00;68.31;101414.84;6100225;23;20085;-74
2022/05/08 22:33:39;;;;;;;3.40;1.77;;;;;;;11.13;68.27;101426.59;6102359;23;20021;-72
2022/05/08 22:36:51;;;;;;;6.88;2.53;;;;;;;11.04;68.16;101420.69;6135661;23;20009;-74
2022/05/08 22:39:17;;;;;;;8.23;3.13;;;;;;;11.05;68.45;101418.75;6188025;23;20442;-74
2022/05/08 22:41:42;;;;;;;4.43;2.13;;;;;;;11.11;68.48;101434.19;6242093;22;20038;-74
2022/05/08 22:44:40;;;;;;;3.67;1.40;;;;;;;11.16;68.30;101446.06;6250378;23;19996;-73
2022/05/08 22:47:21;;;;;;;;;;;;;;;;;;;;;
2022/05/08 22:50:13;;;;;;;3.20;1.90;;;;;;;11.02;68.78;101441.97;6281197;22;20054;-76
2022/05/08 22:56:57;;;;;;;3.20;1.35;;;;;;;10.94;69.30;101445.94;6188096;23;20478;-74
2022/05/08 22:59:25;;;;;;;4.40;1.65;;;;;;;10.88;68.89;101438.72;6141205;23;20577;-74
2022/05/08 23:01:53;;;;;;;8.38;1.52;;;;;;;10.93;68.78;101440.72;6162271;23;20828;-72
2022/05/08 23:04:19;;;;;;;2.88;1.50;;;;;;;10.84;69.37;101426.59;6163219;23;20031;-74
2022/05/08 23:06:54;;;;;;;2.22;1.20;;;;;;;10.59;69.48;101392.16;6189236;23;20016;-71
2022/05/08 23:09:19;;;;;;;6.30;1.48;;;;;;;10.73;69.66;101427.44;6185899;23;20443;-72
2022/05/08 23:11:48;;;;;;;2.67;1.30;;;;;;;10.68;69.61;101427.34;6160704;23;20100;-73
2022/05/08 23:17:22;;;;;;;5.93;2.50;;;;;;;10.70;69.98;101431.47;6272850;22;20154;-72
2022/05/08 23:19:50;;;;;;;2.78;1.27;;;;;;;10.72;69.94;101433.97;6223720;22;20011;-73
2022/05/08 23:22:18;;;;;;;2.13;1.30;;;;;;;10.52;69.62;101410.63;6249731;23;20008;-72
2022/05/08 23:24:43;;;;;;;3.05;1.10;;;;;;;10.55;69.78;101412.88;6224778;22;20430;-73
2022/05/08 23:27:09;;;;;;;4.90;1.80;;;;;;;10.52;69.73;101418.81;6250208;23;20016;-74
2022/05/08 23:29:34;;;;;;;6.50;1.80;;;;;;;10.51;70.03;101422.63;6274491;22;20562;-73
2022/05/08 23:32:03;;;;;;;4.05;1.63;;;;;;;10.45;70.05;101413.50;6222973;23;20011;-73
2022/05/08 23:34:28;;;;;;;8.18;2.15;;;;;;;10.41;70.25;101406.00;6249177;23;20079;-73
2022/05/08 23:37:07;;;;;;;8.75;2.20;;;;;;;10.40;70.50;101407.09;6199597;22;20022;-74
2022/05/08 23:39:40;;;;;;;6.38;1.98;;;;;;;10.38;70.49;101409.22;6223489;23;20072;-73
2022/05/08 23:42:20;;;;;;;7.38;2.00;;;;;;;10.31;70.52;101406.59;6248138;23;20004;-74
2022/05/08 23:45:26;;;;;;;5.65;2.15;;;;;;;10.35;70.77;101417.91;6253273;22;20019;-74
2022/05/08 23:48:04;;;;;;;;;;;;;;;;;;;;;
2022/05/08 23:50:30;;;;;;;5.40;2.20;;;;;;;10.13;70.68;101396.63;6281518;22;20031;-74
2022/05/08 23:53:06;;;;;;;;;;;;;;;;;;;;;
2022/05/08 23:55:32;;;;;;;5.38;2.10;;;;;;;10.20;70.69;101402.78;6282883;22;20375;-74
2022/05/08 23:58:00;;;;;;;4.60;2.00;;;;;;;10.13;71.32;101404.81;6252508;22;20023;-74
